PWSweather.com
Personal Weather Stations
Station Observations
OBERT
Bodensee Hinterland, OberteuringenDE

Bodensee HinterlandOberteuringenDE

Lat: 47.714675, Lon: 9.44447

Elevation: 1427

Station Type: Wunder Weather Station

High Low Average
Temperature 51.9°F11.1°C 36.3°F2.4°C 43.9°F6.6°C
Dew Point 45.9°F7.7°C 36.3°F2.4°C 41.7°F5.4°C
Winds 11.6 mph 18.7 kmh 0.2 mph 0.3 kmh 6.0 mph SW9.7 kmh SW
Wind Gusts 17.1 mph27.5 kmh -- 10.0 mph16.1 kmh
Humidity 100% 77% 92%
Pressure 29.56 in1001.0 mb 29.40 in995.6 mb -
Precipitation 0.00 in0.0 mm - -
Hour Temp Dew Point Humidity Winds Wind Gusts Pressure Precip Precip Rate Daily Precip Total
12:28 AM 38.6°F3.7°C 38.6°F3.7°C 100% 6.9 mph S11.1 kmh S 16.2 mph26.1 kmh 29.56 in1001.0 mb 0.00 in0.0 mm 0.00 in0.0 mm 0.00 in0.0 mm
12:58 AM 37.0°F2.8°C 37.0°F2.8°C 100% 6.0 mph SW9.7 kmh SW 10.3 mph16.6 kmh 29.55 in1000.7 mb 0.00 in0.0 mm 0.00 in0.0 mm 0.00 in0.0 mm
01:28 AM 36.6°F2.6°C 36.6°F2.6°C 100% 7.1 mph W11.4 kmh W 10.6 mph17.1 kmh 29.54 in1000.3 mb 0.00 in0.0 mm 0.00 in0.0 mm 0.00 in0.0 mm
01:58 AM 37.7°F3.2°C 37.7°F3.2°C 100% 5.0 mph SW8.0 kmh SW 10.6 mph17.1 kmh 29.53 in1000.0 mb 0.00 in0.0 mm 0.00 in0.0 mm 0.00 in0.0 mm
02:28 AM 37.0°F2.8°C 37.0°F2.8°C 100% 7.5 mph SSW12.1 kmh SSW 15.6 mph25.1 kmh 29.52 in999.7 mb 0.00 in0.0 mm 0.00 in0.0 mm 0.00 in0.0 mm
02:58 AM 36.6°F2.6°C 36.6°F2.6°C 100% 8.2 mph SSW13.2 kmh SSW 11.5 mph18.5 kmh 29.51 in999.3 mb 0.00 in0.0 mm 0.00 in0.0 mm 0.00 in0.0 mm
03:28 AM 36.3°F2.4°C 36.3°F2.4°C 100% 4.6 mph WSW7.4 kmh WSW 10.3 mph16.6 kmh 29.50 in999.0 mb 0.00 in0.0 mm 0.00 in0.0 mm 0.00 in0.0 mm
03:58 AM 37.2°F2.9°C 37.2°F2.9°C 100% 5.3 mph SW8.5 kmh SW 11.8 mph19.0 kmh 29.49 in998.6 mb 0.00 in0.0 mm 0.00 in0.0 mm 0.00 in0.0 mm
04:28 AM 36.5°F2.5°C 36.5°F2.5°C 100% 6.6 mph SW10.6 kmh SW 11.8 mph19.0 kmh 29.49 in998.6 mb 0.00 in0.0 mm 0.00 in0.0 mm 0.00 in0.0 mm
04:58 AM 37.4°F3.0°C 37.4°F3.0°C 100% 8.4 mph S13.5 kmh S 13.4 mph21.6 kmh 29.48 in998.3 mb 0.00 in0.0 mm 0.00 in0.0 mm 0.00 in0.0 mm
05:28 AM 38.6°F3.7°C 38.1°F3.4°C 98% 9.7 mph S15.6 kmh S 14.3 mph23.0 kmh 29.48 in998.3 mb 0.00 in0.0 mm 0.00 in0.0 mm 0.00 in0.0 mm
05:58 AM 38.3°F3.5°C 37.5°F3.1°C 96% 7.0 mph SSW11.3 kmh SSW 14.3 mph23.0 kmh 29.47 in998.0 mb 0.00 in0.0 mm 0.00 in0.0 mm 0.00 in0.0 mm
06:28 AM 38.1°F3.4°C 37.4°F3.0°C 97% 8.8 mph S14.2 kmh S 14.6 mph23.5 kmh 29.45 in997.3 mb 0.00 in0.0 mm 0.00 in0.0 mm 0.00 in0.0 mm
06:58 AM 37.4°F3.0°C 37.0°F2.8°C 98% 8.0 mph SSW12.9 kmh SSW 15.9 mph25.6 kmh 29.44 in997.0 mb 0.00 in0.0 mm 0.00 in0.0 mm 0.00 in0.0 mm
07:28 AM 38.6°F3.7°C 37.2°F2.9°C 94% 4.8 mph SW7.7 kmh SW 12.8 mph20.6 kmh 29.44 in997.0 mb 0.00 in0.0 mm 0.00 in0.0 mm 0.00 in0.0 mm
07:58 AM 39.7°F4.3°C 37.8°F3.2°C 93% 8.0 mph S12.9 kmh S 17.1 mph27.5 kmh 29.44 in997.0 mb 0.00 in0.0 mm 0.00 in0.0 mm 0.00 in0.0 mm
08:28 AM 40.2°F4.6°C 38.4°F3.6°C 93% 10.0 mph S16.1 kmh S 13.4 mph21.6 kmh 29.44 in997.0 mb 0.00 in0.0 mm 0.00 in0.0 mm 0.00 in0.0 mm
08:58 AM 41.9°F5.5°C 39.1°F3.9°C 89% 7.2 mph S11.6 kmh S 13.7 mph22.0 kmh 29.44 in997.0 mb 0.00 in0.0 mm 0.00 in0.0 mm 0.00 in0.0 mm
09:10 AM 43.7°F6.5°C 39.9°F4.4°C 86% 11.2 mph S18.0 kmh S 14.3 mph23.0 kmh 29.43 in996.6 mb 0.00 in0.0 mm 0.00 in0.0 mm 0.00 in0.0 mm
09:40 AM 47.8°F8.8°C 41.4°F5.2°C 78% 9.6 mph S15.4 kmh S 15.6 mph25.1 kmh 29.42 in996.3 mb 0.00 in0.0 mm 0.00 in0.0 mm 0.00 in0.0 mm
10:10 AM 48.2°F9.0°C 41.7°F5.4°C 78% 11.6 mph SSE18.7 kmh SSE 15.6 mph25.1 kmh 29.42 in996.3 mb 0.00 in0.0 mm 0.00 in0.0 mm 0.00 in0.0 mm
10:40 AM 50.0°F10.0°C 43.3°F6.3°C 77% 8.8 mph SSE14.2 kmh SSE 15.0 mph24.1 kmh 29.42 in996.3 mb 0.00 in0.0 mm 0.00 in0.0 mm 0.00 in0.0 mm
11:10 AM 51.0°F10.6°C 44.7°F7.1°C 79% 7.3 mph S11.7 kmh S 10.6 mph17.1 kmh 29.42 in996.3 mb 0.00 in0.0 mm 0.00 in0.0 mm 0.00 in0.0 mm
11:40 AM 51.4°F10.8°C 45.4°F7.4°C 79% 5.8 mph S9.3 kmh S 9.3 mph15.0 kmh 29.41 in995.9 mb 0.00 in0.0 mm 0.00 in0.0 mm 0.00 in0.0 mm
12:10 PM 51.6°F10.9°C 45.0°F7.2°C 78% 7.7 mph S12.4 kmh S 10.6 mph17.1 kmh 29.41 in995.9 mb 0.00 in0.0 mm 0.00 in0.0 mm 0.00 in0.0 mm
12:40 PM 50.1°F10.1°C 45.1°F7.3°C 82% 7.5 mph S12.1 kmh S 12.5 mph20.1 kmh 29.41 in995.9 mb 0.00 in0.0 mm 0.00 in0.0 mm 0.00 in0.0 mm
01:10 PM 50.3°F10.2°C 45.6°F7.6°C 83% 4.7 mph S7.6 kmh S 9.3 mph15.0 kmh 29.40 in995.6 mb 0.00 in0.0 mm 0.00 in0.0 mm 0.00 in0.0 mm
01:40 PM 51.9°F11.1°C 45.7°F7.6°C 79% 2.4 mph SW3.9 kmh SW 8.1 mph13.0 kmh 29.40 in995.6 mb 0.00 in0.0 mm 0.00 in0.0 mm 0.00 in0.0 mm
03:11 PM 50.0°F10.0°C 45.9°F7.7°C 85% 3.7 mph WNW6.0 kmh WNW 7.8 mph12.6 kmh 29.41 in995.9 mb 0.00 in0.0 mm 0.00 in0.0 mm 0.00 in0.0 mm
03:42 PM 50.0°F10.0°C 45.7°F7.6°C 85% 3.2 mph SW5.1 kmh SW 8.1 mph13.0 kmh 29.42 in996.3 mb 0.00 in0.0 mm 0.00 in0.0 mm 0.00 in0.0 mm
04:12 PM 48.9°F9.4°C 45.3°F7.4°C 87% 2.8 mph W4.5 kmh W 6.8 mph10.9 kmh 29.43 in996.6 mb 0.00 in0.0 mm 0.00 in0.0 mm 0.00 in0.0 mm
04:42 PM 49.1°F9.5°C 45.2°F7.3°C 86% 3.0 mph SW4.8 kmh SW 7.8 mph12.6 kmh 29.43 in996.6 mb 0.00 in0.0 mm 0.00 in0.0 mm 0.00 in0.0 mm
05:12 PM 47.4°F8.6°C 45.2°F7.3°C 92% 3.3 mph W5.3 kmh W 5.6 mph9.0 kmh 29.44 in997.0 mb 0.00 in0.0 mm 0.00 in0.0 mm 0.00 in0.0 mm
05:42 PM 46.7°F8.2°C 45.3°F7.4°C 94% 2.9 mph W4.7 kmh W 5.0 mph8.0 kmh 29.45 in997.3 mb 0.00 in0.0 mm 0.00 in0.0 mm 0.00 in0.0 mm
06:12 PM 46.4°F8.0°C 45.1°F7.3°C 95% 2.3 mph W3.7 kmh W 3.7 mph6.0 kmh 29.46 in997.6 mb 0.00 in0.0 mm 0.00 in0.0 mm 0.00 in0.0 mm
06:42 PM 44.9°F7.2°C 44.8°F7.1°C 99% 0.2 mph WSW0.3 kmh WSW -- 29.47 in998.0 mb 0.00 in0.0 mm 0.00 in0.0 mm 0.00 in0.0 mm
07:12 PM 44.9°F7.2°C 44.7°F7.1°C 99% 2.1 mph W3.4 kmh W 5.3 mph8.5 kmh 29.48 in998.3 mb 0.00 in0.0 mm 0.00 in0.0 mm 0.00 in0.0 mm
07:42 PM 45.6°F7.6°C 44.6°F7.0°C 96% 3.5 mph SSW5.6 kmh SSW 4.6 mph7.4 kmh 29.48 in998.3 mb 0.00 in0.0 mm 0.00 in0.0 mm 0.00 in0.0 mm
08:12 PM 45.1°F7.3°C 45.1°F7.3°C 100% 4.9 mph S7.9 kmh S 6.2 mph10.0 kmh 29.49 in998.6 mb 0.00 in0.0 mm 0.00 in0.0 mm 0.00 in0.0 mm
08:42 PM 49.6°F9.8°C 45.0°F7.2°C 84% 5.0 mph S8.0 kmh S 8.7 mph14.0 kmh 29.50 in999.0 mb 0.00 in0.0 mm 0.00 in0.0 mm 0.00 in0.0 mm
09:12 PM 46.7°F8.2°C 44.1°F6.7°C 90% 3.3 mph W5.3 kmh W 5.6 mph9.0 kmh 29.50 in999.0 mb 0.00 in0.0 mm 0.00 in0.0 mm 0.00 in0.0 mm
09:42 PM 46.0°F7.8°C 44.0°F6.7°C 92% 0.3 mph WSW0.5 kmh WSW 5.0 mph8.0 kmh 29.50 in999.0 mb 0.00 in0.0 mm 0.00 in0.0 mm 0.00 in0.0 mm
10:12 PM 45.1°F7.3°C 44.0°F6.7°C 96% 1.1 mph S1.8 kmh S 3.7 mph6.0 kmh 29.50 in999.0 mb 0.00 in0.0 mm 0.00 in0.0 mm 0.00 in0.0 mm
10:42 PM 45.1°F7.3°C 44.2°F6.8°C 96% 2.5 mph WSW4.0 kmh WSW 4.6 mph7.4 kmh 29.51 in999.3 mb 0.00 in0.0 mm 0.00 in0.0 mm 0.00 in0.0 mm
11:12 PM 44.9°F7.2°C 44.2°F6.8°C 97% 2.2 mph SSW3.5 kmh SSW 3.7 mph6.0 kmh 29.51 in999.3 mb 0.00 in0.0 mm 0.00 in0.0 mm 0.00 in0.0 mm
11:42 PM 44.4°F6.9°C 43.9°F6.6°C 98% 2.1 mph SSW3.4 kmh SSW 4.3 mph6.9 kmh 29.52 in999.7 mb 0.00 in0.0 mm 0.00 in0.0 mm 0.00 in0.0 mm